Accueil
METAR-TAF:

METAR-TAF

Aéroports :

Muir Army Airfield

Fort Indiantown Gap, Pennsylvanie, États-Unis

latitude: 40-26N, longitude: 076-34W, altitude: 149 m

Observation

Le bulletin a été fait il y a 36 minutes, à 06:44 UTC
Vent calme
Température 16°C
Humidité 88%
Pression 1026 hPa
Visibilité: 16.1 km
Nuages fragmentés à une hauteur de 3000 ft
Ciel couvert à une hauteur de 3500 ft

METAR: KMUI 240644Z AUTO 00000KT 10SM BKN030 OVC035 16/14 A3030 RMK AO2 SLP263 $

Heure: 03:20 (07:20 UTC)


TAF: absent

Observations et prévisions météorologiques de plus de 4000 aéroports (messages METAR et TAF).

Les stations disponibles sont représentées par des disques jaunes et rouges sur la carte.

Passer la souris dessus pour voir le nom de la station.

Cliquer dessus pour voir les observations et prévisions météorologiques.

Pour changer de carte: cliquez sur les boutons verts avec une croix noire pour zoomer, sur le bouton vert avec un tiret pour effectuer un zoom arrière, ou sur les flèches vertes pour les cartes adjacentes.


METAR-TAF: